メインページ
METAR-TAF:

METAR-TAF

空港 :

シーラーズ国際空港

シーラーズ, イラン

緯度: 29-32N, 経度: 052-35E, 海抜: 1486m

現時点の気象観測

当レポートは17分前の05:30(UTC)に作成
無風
気温 14°C
湿度 23%
気圧 1018 hPa
視程10km以上
1,500メートル以下は雲なし、積乱雲なし

METAR: OISS 210530Z 00000KT CAVOK 14/M07 Q1018 A3007

時間: 09:17 (05:47 UTC)

予報

当レポートは6時間32分前の23:15(UTC)に作成
予報は21日の 00時(UTC)から 22日の 06時(UTC)まで有効
西/北西の風 8kt
視程: 8000m
21日の 09時(UTC)から 21日の 15時(UTC)まで一時的に
西の風 18kt
高度3000ftの雲はほとんどない, 塔状積雲.
高度10000ftの雲は散在している

TAF: OISS 202315Z 2100/2206 30008KT 8000 NSC TEMPO 2109/2115 27018KT FEW030TCU SCT100

4,000以上の空港の気象観測と天気予報(METAR報とTAF報)

利用可能な観測所は地図上に黄色い丸と赤い丸で示す。

丸の上にカーソルを重ねると観測所名を参照できる。

次にクリックすると気象観測と天気予報を参照できる。

マップの切り替え:黒色「×」印の緑ボタンをクリックして拡大、「-」印の緑ボタンをクリックして縮小、緑色の三角印をクリックして隣りの地図に切り替え


METAR-TAF: